TSC738 CYUL-TFFF
Flight info
| Callsign | TSC738 |
|---|---|
| Flight time | 4h 33m |
| Altitude | 31000 |
| Route | OVAXO DCT VIRKA DCT ENE/N0465F320 DCT BRUWN/N0461F310 Y578 JENYY/N0462F330 Y578 KAYYT/M078F330 L462 DAWIN/N0462F330 L462 LAMKN/N0460F340 UL462 ANU/N0460F350 UA312 PPR/N0461F340 DCT KATIM KATIM2D |
| Aircraft | A321/M-SDE3FGHIRWY/LB1 |
Departure
| Time | 2026-05-07 16:59 |
|---|---|
| Airport | Montreal / Pierre Elliott Trudeau International Airport (CYUL) |
Arrival
| Time | 2026-05-07 21:33 |
|---|---|
| Airport | Martinique Aimé Césaire International Airport (TFFF) |
| Time | Latitude | Longitude | Altitude | Speed | Heading |
|---|---|---|---|---|---|
| 2026-05-07 16:30 | 45.45963 | -73.75823 | 112 ft | 0 kts | 144° |
| 2026-05-07 16:45 | 45.45966 | -73.75826 | 116 ft | 3 kts | 144° |
| 2026-05-07 16:45 | 45.45987 | -73.75849 | 112 ft | 4 kts | 139° |
| 2026-05-07 16:46 | 45.46007 | -73.75874 | 114 ft | 3 kts | 144° |
| 2026-05-07 16:46 | 45.46024 | -73.75889 | 114 ft | 4 kts | 175° |
| 2026-05-07 16:46 | 45.46044 | -73.75878 | 114 ft | 4 kts | 237° |
| 2026-05-07 16:46 | 45.46054 | -73.75844 | 113 ft | 4 kts | 260° |
| 2026-05-07 16:47 | 45.46056 | -73.75828 | 112 ft | 0 kts | 267° |
| 2026-05-07 16:50 | 45.46055 | -73.75834 | 112 ft | 3 kts | 265° |
| 2026-05-07 16:50 | 45.46053 | -73.75894 | 113 ft | 10 kts | 271° |
| 2026-05-07 16:50 | 45.46098 | -73.75948 | 114 ft | 7 kts | 19° |
| 2026-05-07 16:50 | 45.46122 | -73.75902 | 113 ft | 8 kts | 72° |
| 2026-05-07 16:51 | 45.46127 | -73.75799 | 114 ft | 13 kts | 88° |
| 2026-05-07 16:51 | 45.46132 | -73.75647 | 115 ft | 18 kts | 88° |
| 2026-05-07 16:51 | 45.46137 | -73.75446 | 116 ft | 22 kts | 88° |
| 2026-05-07 16:51 | 45.46143 | -73.75242 | 116 ft | 20 kts | 87° |
| 2026-05-07 16:52 | 45.46149 | -73.75055 | 116 ft | 18 kts | 87° |
| 2026-05-07 16:52 | 45.46152 | -73.74889 | 116 ft | 16 kts | 88° |
| 2026-05-07 16:52 | 45.46157 | -73.74734 | 114 ft | 16 kts | 86° |
| 2026-05-07 16:52 | 45.46146 | -73.74584 | 112 ft | 15 kts | 119° |
| 2026-05-07 16:53 | 45.46070 | -73.74486 | 112 ft | 14 kts | 142° |
| 2026-05-07 16:53 | 45.45999 | -73.74390 | 114 ft | 14 kts | 132° |
| 2026-05-07 16:53 | 45.45974 | -73.74274 | 113 ft | 13 kts | 55° |
| 2026-05-07 16:53 | 45.46044 | -73.74181 | 113 ft | 14 kts | 42° |
| 2026-05-07 16:54 | 45.46121 | -73.74081 | 114 ft | 16 kts | 42° |
| 2026-05-07 16:54 | 45.46206 | -73.73971 | 116 ft | 17 kts | 43° |
| 2026-05-07 16:54 | 45.46298 | -73.73850 | 115 ft | 19 kts | 42° |
| 2026-05-07 16:54 | 45.46402 | -73.73712 | 113 ft | 23 kts | 43° |
| 2026-05-07 16:55 | 45.46525 | -73.73552 | 113 ft | 25 kts | 42° |
| 2026-05-07 16:55 | 45.46648 | -73.73389 | 116 ft | 24 kts | 43° |
| 2026-05-07 16:55 | 45.46775 | -73.73225 | 114 ft | 26 kts | 43° |
| 2026-05-07 16:55 | 45.46917 | -73.73038 | 113 ft | 29 kts | 42° |
| 2026-05-07 16:56 | 45.47057 | -73.72856 | 113 ft | 24 kts | 42° |
| 2026-05-07 16:56 | 45.47177 | -73.72697 | 114 ft | 24 kts | 42° |
| 2026-05-07 16:56 | 45.47431 | -73.72364 | 112 ft | 26 kts | 42° |
| 2026-05-07 16:57 | 45.47564 | -73.72192 | 115 ft | 25 kts | 43° |
| 2026-05-07 16:57 | 45.47686 | -73.72030 | 114 ft | 24 kts | 42° |
| 2026-05-07 16:57 | 45.47801 | -73.71877 | 114 ft | 18 kts | 50° |
| 2026-05-07 16:57 | 45.47784 | -73.71771 | 114 ft | 8 kts | 130° |
| 2026-05-07 16:58 | 45.47756 | -73.71725 | 112 ft | 8 kts | 131° |
| 2026-05-07 16:58 | 45.47710 | -73.71650 | 115 ft | 12 kts | 135° |
| 2026-05-07 16:58 | 45.47640 | -73.71687 | 115 ft | 14 kts | 223° |
| 2026-05-07 16:58 | 45.47545 | -73.71813 | 114 ft | 35 kts | 223° |
| 2026-05-07 16:59 | 45.47196 | -73.72269 | 112 ft | 99 kts | 223° |
| 2026-05-07 16:59 | 45.46560 | -73.73101 | 113 ft | 147 kts | 222° |
| 2026-05-07 16:59 | 45.45737 | -73.74191 | 365 ft | 164 kts | 223° |
| 2026-05-07 16:59 | 45.44914 | -73.75271 | 1066 ft | 160 kts | 226° |
| 2026-05-07 17:00 | 45.44111 | -73.76327 | 1819 ft | 155 kts | 229° |
| 2026-05-07 17:00 | 45.43330 | -73.77348 | 2309 ft | 156 kts | 229° |
| 2026-05-07 17:00 | 45.42515 | -73.78487 | 2516 ft | 171 kts | 231° |
| 2026-05-07 17:00 | 45.41667 | -73.79706 | 2758 ft | 182 kts | 230° |
| 2026-05-07 17:01 | 45.40598 | -73.80840 | 2907 ft | 209 kts | 205° |
| 2026-05-07 17:01 | 45.39044 | -73.80775 | 3056 ft | 247 kts | 163° |
| 2026-05-07 17:01 | 45.37550 | -73.79307 | 3321 ft | 274 kts | 139° |
| 2026-05-07 17:01 | 45.36275 | -73.77246 | 3968 ft | 280 kts | 131° |
| 2026-05-07 17:02 | 45.35104 | -73.75017 | 4689 ft | 283 kts | 129° |
| 2026-05-07 17:02 | 45.33942 | -73.72745 | 5389 ft | 285 kts | 129° |
| 2026-05-07 17:02 | 45.32754 | -73.70481 | 6073 ft | 288 kts | 130° |
| 2026-05-07 17:02 | 45.31520 | -73.68220 | 6715 ft | 291 kts | 130° |
| 2026-05-07 17:03 | 45.30268 | -73.65988 | 7335 ft | 295 kts | 131° |
| 2026-05-07 17:03 | 45.28968 | -73.63720 | 7952 ft | 298 kts | 132° |
| 2026-05-07 17:03 | 45.27644 | -73.61436 | 8565 ft | 301 kts | 133° |
| 2026-05-07 17:03 | 45.26300 | -73.59135 | 9196 ft | 304 kts | 133° |
| 2026-05-07 17:04 | 45.24936 | -73.56810 | 9795 ft | 308 kts | 133° |
| 2026-05-07 17:04 | 45.23550 | -73.54449 | 10248 ft | 316 kts | 133° |
| 2026-05-07 17:04 | 45.22096 | -73.51975 | 10375 ft | 337 kts | 133° |
| 2026-05-07 17:04 | 45.20552 | -73.49352 | 10512 ft | 357 kts | 133° |
| 2026-05-07 17:05 | 45.18918 | -73.46576 | 10650 ft | 376 kts | 133° |
| 2026-05-07 17:05 | 45.17248 | -73.43732 | 11062 ft | 384 kts | 132° |
| 2026-05-07 17:05 | 45.15533 | -73.40802 | 11652 ft | 388 kts | 133° |
| 2026-05-07 17:05 | 45.13803 | -73.37848 | 12220 ft | 392 kts | 133° |
| 2026-05-07 17:06 | 45.12051 | -73.34860 | 12796 ft | 395 kts | 133° |
| 2026-05-07 17:06 | 45.10285 | -73.31858 | 13375 ft | 399 kts | 133° |
| 2026-05-07 17:06 | 45.08506 | -73.28838 | 13938 ft | 402 kts | 134° |
| 2026-05-07 17:06 | 45.06709 | -73.25799 | 14419 ft | 405 kts | 134° |
| 2026-05-07 17:07 | 45.04886 | -73.22728 | 14934 ft | 408 kts | 135° |
| 2026-05-07 17:07 | 45.03053 | -73.19644 | 15427 ft | 411 kts | 135° |
| 2026-05-07 17:07 | 45.01232 | -73.16579 | 15892 ft | 415 kts | 135° |
| 2026-05-07 17:07 | 44.99378 | -73.13458 | 16366 ft | 418 kts | 136° |
| 2026-05-07 17:08 | 44.97494 | -73.10290 | 16850 ft | 421 kts | 136° |
| 2026-05-07 17:08 | 44.95605 | -73.07112 | 17318 ft | 424 kts | 136° |
| 2026-05-07 17:08 | 44.93698 | -73.03907 | 17787 ft | 428 kts | 137° |
| 2026-05-07 17:08 | 44.91775 | -73.00684 | 18242 ft | 431 kts | 137° |
| 2026-05-07 17:09 | 44.89838 | -72.97442 | 18601 ft | 433 kts | 137° |
| 2026-05-07 17:09 | 44.87895 | -72.94190 | 18968 ft | 435 kts | 138° |
| 2026-05-07 17:09 | 44.85962 | -72.90956 | 19322 ft | 438 kts | 138° |
| 2026-05-07 17:09 | 44.83990 | -72.87666 | 19677 ft | 441 kts | 138° |
| 2026-05-07 17:10 | 44.82006 | -72.84365 | 20041 ft | 443 kts | 138° |
| 2026-05-07 17:10 | 44.80005 | -72.81046 | 20405 ft | 445 kts | 139° |
| 2026-05-07 17:10 | 44.77995 | -72.77714 | 20762 ft | 447 kts | 139° |
| 2026-05-07 17:10 | 44.75976 | -72.74370 | 21122 ft | 450 kts | 139° |
| 2026-05-07 17:11 | 44.73947 | -72.71012 | 21485 ft | 452 kts | 139° |
| 2026-05-07 17:11 | 44.71900 | -72.67631 | 21761 ft | 455 kts | 139° |
| 2026-05-07 17:11 | 44.69874 | -72.64279 | 22122 ft | 457 kts | 139° |
| 2026-05-07 17:11 | 44.67814 | -72.60868 | 22474 ft | 459 kts | 139° |
| 2026-05-07 17:12 | 44.65738 | -72.57439 | 22804 ft | 461 kts | 140° |
| 2026-05-07 17:12 | 44.63652 | -72.54001 | 23144 ft | 464 kts | 140° |
| 2026-05-07 17:12 | 44.61551 | -72.50552 | 23444 ft | 466 kts | 140° |
| 2026-05-07 17:12 | 44.59439 | -72.47089 | 23666 ft | 468 kts | 140° |
| 2026-05-07 17:13 | 44.57318 | -72.43612 | 23919 ft | 471 kts | 140° |
| 2026-05-07 17:13 | 44.55184 | -72.40108 | 24119 ft | 473 kts | 141° |
| 2026-05-07 17:13 | 44.53040 | -72.36590 | 24357 ft | 475 kts | 141° |
| 2026-05-07 17:13 | 44.50886 | -72.33066 | 24607 ft | 477 kts | 141° |
| 2026-05-07 17:14 | 44.48749 | -72.29576 | 24851 ft | 479 kts | 141° |
| 2026-05-07 17:14 | 44.46572 | -72.26029 | 25102 ft | 481 kts | 141° |
| 2026-05-07 17:14 | 44.44387 | -72.22474 | 25339 ft | 483 kts | 141° |
| 2026-05-07 17:14 | 44.42188 | -72.18899 | 25592 ft | 485 kts | 141° |
| 2026-05-07 17:15 | 44.39983 | -72.15313 | 25840 ft | 487 kts | 141° |
| 2026-05-07 17:15 | 44.37771 | -72.11718 | 26018 ft | 489 kts | 142° |
| 2026-05-07 17:15 | 44.35549 | -72.08115 | 26238 ft | 490 kts | 142° |
| 2026-05-07 17:15 | 44.33317 | -72.04500 | 26414 ft | 492 kts | 142° |
| 2026-05-07 17:16 | 44.31073 | -72.00871 | 26613 ft | 495 kts | 142° |
| 2026-05-07 17:16 | 44.28852 | -71.97278 | 26818 ft | 496 kts | 142° |
| 2026-05-07 17:16 | 44.26591 | -71.93627 | 27020 ft | 498 kts | 142° |
| 2026-05-07 17:16 | 44.24326 | -71.89977 | 27290 ft | 498 kts | 142° |
| 2026-05-07 17:17 | 44.22061 | -71.86331 | 27631 ft | 497 kts | 142° |
| 2026-05-07 17:17 | 44.19797 | -71.82692 | 27909 ft | 496 kts | 142° |
| 2026-05-07 17:17 | 44.17536 | -71.79065 | 28193 ft | 495 kts | 142° |
| 2026-05-07 17:17 | 44.15278 | -71.75450 | 28485 ft | 495 kts | 142° |
| 2026-05-07 17:18 | 44.13015 | -71.71836 | 28798 ft | 495 kts | 143° |
| 2026-05-07 17:18 | 44.10754 | -71.68229 | 29144 ft | 494 kts | 143° |
| 2026-05-07 17:18 | 44.08531 | -71.64676 | 29438 ft | 494 kts | 143° |
| 2026-05-07 17:18 | 44.06271 | -71.61073 | 29602 ft | 495 kts | 143° |
| 2026-05-07 17:19 | 44.04002 | -71.57467 | 29723 ft | 496 kts | 144° |
| 2026-05-07 17:19 | 44.01722 | -71.53852 | 29876 ft | 498 kts | 144° |
| 2026-05-07 17:19 | 43.99438 | -71.50231 | 30023 ft | 499 kts | 144° |
| 2026-05-07 17:19 | 43.97155 | -71.46612 | 30226 ft | 499 kts | 144° |
| 2026-05-07 17:20 | 43.94866 | -71.42980 | 30499 ft | 499 kts | 144° |
| 2026-05-07 17:20 | 43.92584 | -71.39359 | 30731 ft | 499 kts | 144° |
| 2026-05-07 17:20 | 43.90327 | -71.35785 | 30914 ft | 499 kts | 144° |
| 2026-05-07 17:20 | 43.88042 | -71.32174 | 31104 ft | 499 kts | 144° |
| 2026-05-07 17:21 | 43.85751 | -71.28556 | 31278 ft | 498 kts | 144° |
| 2026-05-07 17:21 | 43.83460 | -71.24951 | 31447 ft | 499 kts | 144° |
| 2026-05-07 17:21 | 43.81168 | -71.21353 | 31630 ft | 498 kts | 144° |
| 2026-05-07 17:21 | 43.78874 | -71.17754 | 31824 ft | 498 kts | 145° |
| 2026-05-07 17:22 | 43.76584 | -71.14165 | 31997 ft | 498 kts | 145° |
| 2026-05-07 17:22 | 43.74289 | -71.10576 | 32194 ft | 498 kts | 145° |
| 2026-05-07 17:22 | 43.71989 | -71.06986 | 32377 ft | 498 kts | 145° |
| 2026-05-07 17:22 | 43.69728 | -71.03456 | 32594 ft | 498 kts | 145° |
| 2026-05-07 17:23 | 43.67437 | -70.99883 | 32767 ft | 498 kts | 145° |
| 2026-05-07 17:23 | 43.65132 | -70.96298 | 32807 ft | 498 kts | 145° |
| 2026-05-07 17:23 | 43.60531 | -70.89144 | 32806 ft | 498 kts | 145° |
| 2026-05-07 17:24 | 43.55933 | -70.81998 | 32808 ft | 498 kts | 145° |
| 2026-05-07 17:24 | 43.51327 | -70.74855 | 32793 ft | 499 kts | 146° |
| 2026-05-07 17:25 | 43.46635 | -70.67975 | 32811 ft | 484 kts | 154° |
| 2026-05-07 17:25 | 43.44031 | -70.65173 | 32809 ft | 467 kts | 162° |
| 2026-05-07 17:25 | 43.41295 | -70.62919 | 32807 ft | 450 kts | 169° |
| 2026-05-07 17:26 | 43.38486 | -70.61196 | 32805 ft | 435 kts | 176° |
| 2026-05-07 17:26 | 43.35649 | -70.59977 | 32805 ft | 421 kts | 182° |
| 2026-05-07 17:26 | 43.32823 | -70.59221 | 32805 ft | 409 kts | 187° |
| 2026-05-07 17:26 | 43.30006 | -70.58621 | 32781 ft | 408 kts | 188° |
| 2026-05-07 17:27 | 43.24430 | -70.57423 | 32802 ft | 408 kts | 188° |
| 2026-05-07 17:27 | 43.18820 | -70.56216 | 32796 ft | 408 kts | 188° |
| 2026-05-07 17:28 | 43.13208 | -70.55007 | 32796 ft | 408 kts | 188° |
| 2026-05-07 17:28 | 43.08553 | -70.54011 | 32790 ft | 407 kts | 188° |
| 2026-05-07 17:29 | 43.02051 | -70.52604 | 32770 ft | 403 kts | 188° |
| 2026-05-07 17:29 | 42.96551 | -70.51431 | 32778 ft | 403 kts | 189° |
| 2026-05-07 17:30 | 42.91018 | -70.50258 | 32751 ft | 401 kts | 189° |
| 2026-05-07 17:30 | 42.85498 | -70.49079 | 32808 ft | 401 kts | 189° |
| 2026-05-07 17:31 | 42.80915 | -70.48099 | 32816 ft | 401 kts | 189° |
| 2026-05-07 17:31 | 42.75418 | -70.46930 | 32821 ft | 399 kts | 190° |
| 2026-05-07 17:32 | 42.69045 | -70.45590 | 32779 ft | 398 kts | 190° |
| 2026-05-07 17:32 | 42.64455 | -70.44623 | 32799 ft | 398 kts | 190° |
| 2026-05-07 17:33 | 42.59017 | -70.43460 | 32810 ft | 398 kts | 190° |
| 2026-05-07 17:33 | 42.53544 | -70.42300 | 32815 ft | 398 kts | 190° |
| 2026-05-07 17:34 | 42.48079 | -70.41160 | 32796 ft | 398 kts | 190° |
| 2026-05-07 17:34 | 42.42632 | -70.40026 | 32816 ft | 399 kts | 190° |
| 2026-05-07 17:35 | 42.37151 | -70.38874 | 32822 ft | 399 kts | 190° |
| 2026-05-07 17:35 | 42.30781 | -70.37526 | 32761 ft | 398 kts | 190° |
| 2026-05-07 17:36 | 42.26177 | -70.36566 | 32827 ft | 401 kts | 190° |
| 2026-05-07 17:36 | 42.20703 | -70.35427 | 32835 ft | 400 kts | 190° |
| 2026-05-07 17:37 | 42.15198 | -70.34275 | 32833 ft | 400 kts | 190° |
| 2026-05-07 17:37 | 42.09701 | -70.33127 | 32797 ft | 400 kts | 189° |
| 2026-05-07 17:38 | 42.04202 | -70.31995 | 32811 ft | 400 kts | 190° |
| 2026-05-07 17:38 | 41.98701 | -70.30858 | 32831 ft | 400 kts | 189° |
| 2026-05-07 17:39 | 41.93231 | -70.29722 | 32830 ft | 400 kts | 189° |
| 2026-05-07 17:39 | 41.87727 | -70.28583 | 32833 ft | 402 kts | 189° |
| 2026-05-07 17:40 | 41.82182 | -70.27445 | 32833 ft | 404 kts | 189° |
| 2026-05-07 17:40 | 41.76629 | -70.26294 | 32843 ft | 403 kts | 189° |
| 2026-05-07 17:41 | 41.71131 | -70.25163 | 32842 ft | 402 kts | 189° |
| 2026-05-07 17:41 | 41.65600 | -70.24035 | 32795 ft | 402 kts | 189° |
| 2026-05-07 17:42 | 41.62820 | -70.23296 | 32797 ft | 417 kts | 182° |
| 2026-05-07 17:42 | 41.60024 | -70.21940 | 32801 ft | 440 kts | 173° |
| 2026-05-07 17:42 | 41.57291 | -70.19867 | 32766 ft | 466 kts | 162° |
| 2026-05-07 17:42 | 41.54673 | -70.17179 | 32836 ft | 478 kts | 159° |
| 2026-05-07 17:43 | 41.49431 | -70.11693 | 32844 ft | 479 kts | 159° |
| 2026-05-07 17:43 | 41.44214 | -70.06278 | 32844 ft | 478 kts | 160° |
| 2026-05-07 17:44 | 41.38959 | -70.00864 | 32860 ft | 478 kts | 160° |
| 2026-05-07 17:44 | 41.33698 | -69.95456 | 32865 ft | 477 kts | 160° |
| 2026-05-07 17:45 | 41.28444 | -69.90055 | 32871 ft | 477 kts | 160° |
| 2026-05-07 17:45 | 41.23228 | -69.84699 | 32822 ft | 477 kts | 160° |
| 2026-05-07 17:46 | 41.17972 | -69.79324 | 32852 ft | 478 kts | 160° |
| 2026-05-07 17:46 | 41.12706 | -69.73951 | 32866 ft | 477 kts | 160° |
| 2026-05-07 17:47 | 41.07446 | -69.68590 | 32869 ft | 477 kts | 160° |
| 2026-05-07 17:47 | 41.02236 | -69.63288 | 32869 ft | 476 kts | 160° |
| 2026-05-07 17:48 | 40.97197 | -69.57337 | 32864 ft | 501 kts | 148° |
| 2026-05-07 17:48 | 40.92501 | -69.50529 | 32836 ft | 500 kts | 148° |
| 2026-05-07 17:49 | 40.87979 | -69.43989 | 32868 ft | 499 kts | 148° |
| 2026-05-07 17:49 | 40.83321 | -69.37275 | 32870 ft | 498 kts | 148° |
| 2026-05-07 17:50 | 40.78633 | -69.30545 | 32866 ft | 498 kts | 148° |
| 2026-05-07 17:50 | 40.73944 | -69.23828 | 32862 ft | 497 kts | 148° |
| 2026-05-07 17:51 | 40.69254 | -69.17130 | 32837 ft | 497 kts | 147° |
| 2026-05-07 17:51 | 40.64587 | -69.10471 | 32859 ft | 494 kts | 147° |
| 2026-05-07 17:52 | 40.59956 | -69.03887 | 32870 ft | 493 kts | 147° |
| 2026-05-07 17:52 | 40.55298 | -68.97278 | 32869 ft | 492 kts | 147° |
| 2026-05-07 17:53 | 40.50645 | -68.90684 | 32872 ft | 492 kts | 147° |
| 2026-05-07 17:53 | 40.45985 | -68.84107 | 32835 ft | 492 kts | 146° |
| 2026-05-07 17:54 | 40.41352 | -68.77579 | 32836 ft | 492 kts | 146° |
| 2026-05-07 17:54 | 40.36668 | -68.70993 | 32850 ft | 496 kts | 146° |
| 2026-05-07 17:55 | 40.31951 | -68.64372 | 32876 ft | 497 kts | 146° |
| 2026-05-07 17:55 | 40.27229 | -68.57753 | 32859 ft | 497 kts | 146° |
| 2026-05-07 17:56 | 40.22543 | -68.51201 | 32825 ft | 496 kts | 145° |
| 2026-05-07 17:56 | 40.17797 | -68.44581 | 32831 ft | 500 kts | 145° |
| 2026-05-07 17:57 | 40.13834 | -68.39068 | 32849 ft | 501 kts | 145° |
| 2026-05-07 17:57 | 40.08239 | -68.31296 | 32850 ft | 505 kts | 145° |
| 2026-05-07 17:58 | 40.03416 | -68.24621 | 32857 ft | 505 kts | 145° |
| 2026-05-07 17:58 | 39.98639 | -68.18005 | 32808 ft | 504 kts | 144° |
| 2026-05-07 17:59 | 39.93505 | -68.12046 | 32843 ft | 482 kts | 159° |
| 2026-05-07 17:59 | 39.90676 | -68.09833 | 33053 ft | 467 kts | 167° |
| 2026-05-07 17:59 | 39.87752 | -68.08114 | 33192 ft | 461 kts | 170° |
| 2026-05-07 18:00 | 39.81817 | -68.04974 | 33415 ft | 460 kts | 172° |
| 2026-05-07 18:00 | 39.78828 | -68.03475 | 33547 ft | 461 kts | 172° |
| 2026-05-07 18:00 | 39.75865 | -68.02003 | 33678 ft | 463 kts | 172° |
| 2026-05-07 18:01 | 39.72858 | -68.00499 | 33836 ft | 464 kts | 172° |
| 2026-05-07 18:01 | 39.69845 | -67.98977 | 33859 ft | 465 kts | 172° |
| 2026-05-07 18:01 | 39.63818 | -67.95887 | 33857 ft | 466 kts | 172° |
| 2026-05-07 18:02 | 39.54781 | -67.91218 | 33856 ft | 466 kts | 171° |
| 2026-05-07 18:03 | 39.48793 | -67.88152 | 33859 ft | 466 kts | 171° |
| 2026-05-07 18:03 | 39.42759 | -67.85088 | 33867 ft | 466 kts | 171° |
| 2026-05-07 18:04 | 39.36725 | -67.82018 | 33834 ft | 466 kts | 170° |
| 2026-05-07 18:04 | 39.30689 | -67.78940 | 33839 ft | 467 kts | 170° |
| 2026-05-07 18:05 | 39.24642 | -67.75887 | 33847 ft | 467 kts | 170° |
| 2026-05-07 18:05 | 39.18628 | -67.72846 | 33852 ft | 467 kts | 170° |
| 2026-05-07 18:06 | 39.12576 | -67.69795 | 33835 ft | 467 kts | 169° |
| 2026-05-07 18:06 | 39.06519 | -67.66735 | 33841 ft | 468 kts | 169° |
| 2026-05-07 18:07 | 39.00452 | -67.63678 | 33850 ft | 469 kts | 169° |
| 2026-05-07 18:07 | 38.94422 | -67.60648 | 33858 ft | 469 kts | 169° |
| 2026-05-07 18:08 | 38.88348 | -67.57601 | 33825 ft | 469 kts | 169° |
| 2026-05-07 18:08 | 38.82296 | -67.54430 | 33840 ft | 471 kts | 167° |
| 2026-05-07 18:09 | 38.76268 | -67.51079 | 33837 ft | 473 kts | 166° |
| 2026-05-07 18:09 | 38.70273 | -67.47745 | 33845 ft | 473 kts | 167° |
| 2026-05-07 18:10 | 38.64216 | -67.44437 | 33832 ft | 473 kts | 166° |
| 2026-05-07 18:10 | 38.58138 | -67.41155 | 33840 ft | 475 kts | 166° |
| 2026-05-07 18:11 | 38.52045 | -67.37861 | 33848 ft | 476 kts | 166° |
| 2026-05-07 18:11 | 38.45984 | -67.34563 | 33856 ft | 477 kts | 166° |
| 2026-05-07 18:12 | 38.39875 | -67.31261 | 33856 ft | 477 kts | 166° |
| 2026-05-07 18:12 | 38.33765 | -67.27963 | 33864 ft | 477 kts | 166° |
| 2026-05-07 18:13 | 38.27653 | -67.24668 | 33876 ft | 477 kts | 166° |
| 2026-05-07 18:13 | 38.21578 | -67.21393 | 33863 ft | 477 kts | 166° |
| 2026-05-07 18:14 | 38.15457 | -67.18120 | 33855 ft | 478 kts | 165° |
| 2026-05-07 18:14 | 38.09325 | -67.14837 | 33870 ft | 479 kts | 165° |
| 2026-05-07 18:15 | 38.03183 | -67.11548 | 33885 ft | 479 kts | 165° |
| 2026-05-07 18:15 | 37.97077 | -67.08286 | 33891 ft | 479 kts | 165° |
| 2026-05-07 18:16 | 37.90931 | -67.05009 | 33871 ft | 480 kts | 165° |
| 2026-05-07 18:16 | 37.84770 | -67.01727 | 33890 ft | 480 kts | 165° |
| 2026-05-07 18:17 | 37.78603 | -66.98449 | 33900 ft | 481 kts | 165° |
| 2026-05-07 18:17 | 37.72471 | -66.95204 | 33905 ft | 481 kts | 165° |
| 2026-05-07 18:18 | 37.66297 | -66.91929 | 33902 ft | 481 kts | 164° |
| 2026-05-07 18:18 | 37.60121 | -66.88675 | 33916 ft | 481 kts | 164° |
| 2026-05-07 18:19 | 37.53950 | -66.85435 | 33933 ft | 480 kts | 164° |
| 2026-05-07 18:19 | 37.47789 | -66.82193 | 33939 ft | 480 kts | 164° |
| 2026-05-07 18:20 | 37.41673 | -66.78974 | 33927 ft | 479 kts | 164° |
| 2026-05-07 18:20 | 37.35519 | -66.75745 | 33944 ft | 479 kts | 164° |
| 2026-05-07 18:21 | 37.29372 | -66.72528 | 33950 ft | 479 kts | 164° |
| 2026-05-07 18:21 | 37.23217 | -66.69313 | 33954 ft | 479 kts | 164° |
| 2026-05-07 18:22 | 37.17103 | -66.66128 | 33939 ft | 479 kts | 164° |
| 2026-05-07 18:22 | 37.10949 | -66.62919 | 33949 ft | 480 kts | 164° |
| 2026-05-07 18:23 | 37.04781 | -66.59710 | 33954 ft | 480 kts | 164° |
| 2026-05-07 18:23 | 36.98608 | -66.56512 | 33945 ft | 480 kts | 164° |
| 2026-05-07 18:24 | 36.92432 | -66.53314 | 33938 ft | 481 kts | 163° |
| 2026-05-07 18:24 | 36.86286 | -66.50145 | 33947 ft | 482 kts | 163° |
| 2026-05-07 18:25 | 36.80083 | -66.46945 | 33959 ft | 483 kts | 163° |
| 2026-05-07 18:25 | 36.73869 | -66.43739 | 33967 ft | 483 kts | 163° |
| 2026-05-07 18:26 | 36.67654 | -66.40550 | 33965 ft | 483 kts | 163° |
| 2026-05-07 18:26 | 36.61488 | -66.37380 | 33990 ft | 482 kts | 163° |
| 2026-05-07 18:27 | 36.55290 | -66.34200 | 34003 ft | 482 kts | 163° |
| 2026-05-07 18:27 | 36.49093 | -66.31034 | 34009 ft | 481 kts | 163° |
| 2026-05-07 18:28 | 36.42898 | -66.27868 | 33991 ft | 481 kts | 163° |
| 2026-05-07 18:28 | 36.36718 | -66.24717 | 34018 ft | 480 kts | 163° |
| 2026-05-07 18:29 | 36.30598 | -66.21598 | 34026 ft | 478 kts | 163° |
| 2026-05-07 18:29 | 36.24456 | -66.18476 | 34032 ft | 477 kts | 163° |
| 2026-05-07 18:30 | 36.18323 | -66.15358 | 34011 ft | 476 kts | 163° |
| 2026-05-07 18:30 | 36.12193 | -66.12260 | 34018 ft | 476 kts | 163° |
| 2026-05-07 18:31 | 36.06066 | -66.09164 | 34020 ft | 476 kts | 163° |
| 2026-05-07 18:31 | 35.99981 | -66.06101 | 34022 ft | 476 kts | 163° |
| 2026-05-07 18:32 | 35.93851 | -66.03018 | 34026 ft | 476 kts | 163° |
| 2026-05-07 18:32 | 35.87725 | -65.99941 | 34029 ft | 475 kts | 163° |
| 2026-05-07 18:33 | 35.81598 | -65.96866 | 34031 ft | 475 kts | 163° |
| 2026-05-07 18:33 | 35.75515 | -65.93820 | 34034 ft | 475 kts | 163° |
| 2026-05-07 18:34 | 35.69396 | -65.90752 | 34022 ft | 475 kts | 163° |
| 2026-05-07 18:34 | 35.63267 | -65.87685 | 34007 ft | 476 kts | 163° |
| 2026-05-07 18:35 | 35.57127 | -65.84618 | 34017 ft | 477 kts | 163° |
| 2026-05-07 18:35 | 35.51012 | -65.81575 | 34023 ft | 477 kts | 163° |
| 2026-05-07 18:36 | 35.44854 | -65.78519 | 34028 ft | 478 kts | 163° |
| 2026-05-07 18:36 | 35.38693 | -65.75463 | 34012 ft | 478 kts | 163° |
| 2026-05-07 18:37 | 35.32532 | -65.72410 | 34034 ft | 478 kts | 163° |
| 2026-05-07 18:37 | 35.26403 | -65.69397 | 34046 ft | 476 kts | 166° |
| 2026-05-07 18:38 | 35.20053 | -65.67497 | 34057 ft | 468 kts | 175° |
| 2026-05-07 18:38 | 35.13670 | -65.65930 | 34051 ft | 468 kts | 175° |
| 2026-05-07 18:39 | 35.07292 | -65.64349 | 34056 ft | 467 kts | 174° |
| 2026-05-07 18:39 | 35.00973 | -65.62776 | 34066 ft | 467 kts | 174° |
| 2026-05-07 18:40 | 34.94613 | -65.61194 | 34059 ft | 466 kts | 174° |
| 2026-05-07 18:40 | 34.88241 | -65.59630 | 34033 ft | 468 kts | 174° |
| 2026-05-07 18:41 | 34.81846 | -65.58069 | 34041 ft | 469 kts | 174° |
| 2026-05-07 18:41 | 34.75436 | -65.56497 | 34050 ft | 470 kts | 174° |
| 2026-05-07 18:42 | 34.69061 | -65.54926 | 34051 ft | 471 kts | 174° |
| 2026-05-07 18:42 | 34.62644 | -65.53340 | 34059 ft | 471 kts | 174° |
| 2026-05-07 18:43 | 34.56226 | -65.51756 | 34071 ft | 470 kts | 174° |
| 2026-05-07 18:43 | 34.49812 | -65.50193 | 34076 ft | 470 kts | 174° |
| 2026-05-07 18:44 | 34.43440 | -65.48643 | 34079 ft | 470 kts | 174° |
| 2026-05-07 18:44 | 34.37023 | -65.47073 | 34066 ft | 471 kts | 174° |
| 2026-05-07 18:45 | 34.30600 | -65.45505 | 34068 ft | 471 kts | 174° |
| 2026-05-07 18:45 | 34.24174 | -65.43952 | 34074 ft | 471 kts | 174° |
| 2026-05-07 18:46 | 34.17744 | -65.42391 | 34076 ft | 471 kts | 174° |
| 2026-05-07 18:46 | 34.11354 | -65.40842 | 34059 ft | 472 kts | 174° |
| 2026-05-07 18:47 | 34.04898 | -65.39291 | 34060 ft | 474 kts | 174° |
| 2026-05-07 18:47 | 33.98423 | -65.37728 | 34067 ft | 475 kts | 174° |
| 2026-05-07 18:48 | 33.91987 | -65.36166 | 34058 ft | 475 kts | 174° |
| 2026-05-07 18:48 | 33.85497 | -65.34596 | 34062 ft | 476 kts | 174° |
| 2026-05-07 18:49 | 33.78989 | -65.33035 | 34066 ft | 478 kts | 174° |
| 2026-05-07 18:49 | 33.72459 | -65.31482 | 34074 ft | 478 kts | 174° |
| 2026-05-07 18:50 | 33.65930 | -65.29930 | 34067 ft | 479 kts | 174° |
| 2026-05-07 18:50 | 33.59437 | -65.28368 | 34086 ft | 479 kts | 174° |
| 2026-05-07 18:51 | 33.52893 | -65.26790 | 34091 ft | 480 kts | 174° |
| 2026-05-07 18:51 | 33.46342 | -65.25224 | 34098 ft | 480 kts | 174° |
| 2026-05-07 18:52 | 33.39791 | -65.23663 | 34101 ft | 480 kts | 174° |
| 2026-05-07 18:52 | 33.33280 | -65.22120 | 34106 ft | 480 kts | 174° |
| 2026-05-07 18:53 | 33.26727 | -65.20564 | 34108 ft | 480 kts | 174° |
| 2026-05-07 18:53 | 33.20176 | -65.19016 | 34110 ft | 480 kts | 174° |
| 2026-05-07 18:54 | 33.13622 | -65.17466 | 34086 ft | 480 kts | 174° |
| 2026-05-07 18:54 | 33.07100 | -65.15918 | 34084 ft | 482 kts | 174° |
| 2026-05-07 18:55 | 33.00517 | -65.14365 | 34085 ft | 483 kts | 174° |
| 2026-05-07 18:55 | 32.93932 | -65.12817 | 34357 ft | 483 kts | 174° |
| 2026-05-07 18:55 | 32.90628 | -65.12041 | 34467 ft | 484 kts | 174° |
| 2026-05-07 18:56 | 32.87316 | -65.11267 | 34577 ft | 486 kts | 174° |
| 2026-05-07 18:56 | 32.83993 | -65.10492 | 34693 ft | 487 kts | 173° |
| 2026-05-07 18:56 | 32.80704 | -65.09721 | 34816 ft | 489 kts | 173° |
| 2026-05-07 18:56 | 32.77362 | -65.08934 | 34929 ft | 490 kts | 173° |
| 2026-05-07 18:57 | 32.74018 | -65.08145 | 35076 ft | 491 kts | 173° |
| 2026-05-07 18:57 | 32.67298 | -65.06573 | 35105 ft | 492 kts | 174° |
| 2026-05-07 18:58 | 32.60571 | -65.05007 | 35111 ft | 494 kts | 173° |
| 2026-05-07 18:58 | 32.53865 | -65.03436 | 35112 ft | 495 kts | 173° |
| 2026-05-07 18:59 | 32.47111 | -65.01857 | 35109 ft | 495 kts | 173° |
| 2026-05-07 18:59 | 32.40357 | -65.00281 | 35114 ft | 495 kts | 173° |
| 2026-05-07 19:00 | 32.33598 | -64.98704 | 35105 ft | 496 kts | 173° |
| 2026-05-07 19:00 | 32.26869 | -64.97141 | 35114 ft | 496 kts | 173° |
| 2026-05-07 19:01 | 32.20085 | -64.95571 | 35114 ft | 497 kts | 173° |
| 2026-05-07 19:01 | 32.13292 | -64.94003 | 35118 ft | 498 kts | 173° |
| 2026-05-07 19:02 | 32.06490 | -64.92440 | 35100 ft | 499 kts | 173° |
| 2026-05-07 19:02 | 31.99676 | -64.90877 | 35103 ft | 499 kts | 173° |
| 2026-05-07 19:03 | 31.92897 | -64.89317 | 35111 ft | 500 kts | 173° |
| 2026-05-07 19:03 | 31.86069 | -64.87737 | 35104 ft | 500 kts | 173° |
| 2026-05-07 19:04 | 31.79228 | -64.86162 | 35103 ft | 501 kts | 173° |
| 2026-05-07 19:04 | 31.72371 | -64.84603 | 35107 ft | 502 kts | 173° |
| 2026-05-07 19:05 | 31.65554 | -64.83043 | 35120 ft | 503 kts | 173° |
| 2026-05-07 19:05 | 31.58686 | -64.81469 | 35115 ft | 503 kts | 172° |
| 2026-05-07 19:06 | 31.51808 | -64.79892 | 35115 ft | 504 kts | 172° |
| 2026-05-07 19:06 | 31.41477 | -64.77546 | 35120 ft | 504 kts | 173° |
| 2026-05-07 19:07 | 31.34633 | -64.75992 | 35126 ft | 505 kts | 172° |
| 2026-05-07 19:07 | 31.27736 | -64.74428 | 35119 ft | 505 kts | 172° |
| 2026-05-07 19:08 | 31.20836 | -64.72858 | 35116 ft | 506 kts | 172° |
| 2026-05-07 19:08 | 31.13924 | -64.71293 | 35119 ft | 506 kts | 172° |
| 2026-05-07 19:09 | 31.07060 | -64.69744 | 35122 ft | 506 kts | 172° |
| 2026-05-07 19:09 | 31.00144 | -64.68182 | 35117 ft | 506 kts | 172° |
| 2026-05-07 19:10 | 30.93225 | -64.66623 | 35121 ft | 507 kts | 172° |
| 2026-05-07 19:10 | 30.86304 | -64.65073 | 35126 ft | 507 kts | 172° |
| 2026-05-07 19:11 | 30.79377 | -64.63523 | 35129 ft | 507 kts | 172° |
| 2026-05-07 19:11 | 30.72498 | -64.61979 | 35130 ft | 507 kts | 172° |
| 2026-05-07 19:12 | 30.65573 | -64.60434 | 35127 ft | 507 kts | 172° |
| 2026-05-07 19:12 | 30.58651 | -64.58886 | 35128 ft | 507 kts | 172° |
| 2026-05-07 19:13 | 30.51725 | -64.57338 | 35121 ft | 507 kts | 172° |
| 2026-05-07 19:13 | 30.44840 | -64.55799 | 35121 ft | 507 kts | 172° |
| 2026-05-07 19:14 | 30.37907 | -64.54251 | 35122 ft | 508 kts | 172° |
| 2026-05-07 19:14 | 30.30966 | -64.52705 | 35124 ft | 508 kts | 172° |
| 2026-05-07 19:15 | 30.24026 | -64.51159 | 35120 ft | 508 kts | 172° |
| 2026-05-07 19:15 | 30.17079 | -64.49620 | 35122 ft | 509 kts | 172° |
| 2026-05-07 19:16 | 30.10171 | -64.48099 | 35123 ft | 509 kts | 172° |
| 2026-05-07 19:16 | 30.03215 | -64.46564 | 35125 ft | 509 kts | 172° |
| 2026-05-07 19:17 | 29.96255 | -64.45021 | 35114 ft | 510 kts | 171° |
| 2026-05-07 19:17 | 29.89283 | -64.43478 | 35114 ft | 510 kts | 172° |
| 2026-05-07 19:18 | 29.82350 | -64.41962 | 35118 ft | 511 kts | 172° |
| 2026-05-07 19:18 | 29.75366 | -64.40427 | 35123 ft | 511 kts | 171° |
| 2026-05-07 19:19 | 29.68387 | -64.38888 | 35111 ft | 511 kts | 171° |
| 2026-05-07 19:19 | 29.61385 | -64.37360 | 35113 ft | 512 kts | 171° |
| 2026-05-07 19:20 | 29.54379 | -64.35825 | 35128 ft | 513 kts | 171° |
| 2026-05-07 19:20 | 29.47417 | -64.34303 | 35109 ft | 514 kts | 171° |
| 2026-05-07 19:21 | 29.40388 | -64.32769 | 35100 ft | 515 kts | 171° |
| 2026-05-07 19:21 | 29.33344 | -64.31220 | 35108 ft | 516 kts | 171° |
| 2026-05-07 19:22 | 29.26304 | -64.29613 | 35120 ft | 516 kts | 170° |
| 2026-05-07 19:22 | 29.19312 | -64.28003 | 35128 ft | 516 kts | 170° |
| 2026-05-07 19:23 | 29.12263 | -64.26399 | 35107 ft | 516 kts | 170° |
| 2026-05-07 19:23 | 29.05209 | -64.24812 | 35114 ft | 517 kts | 170° |
| 2026-05-07 19:24 | 28.98151 | -64.23216 | 35116 ft | 517 kts | 170° |
| 2026-05-07 19:24 | 28.91134 | -64.21626 | 35120 ft | 518 kts | 170° |
| 2026-05-07 19:25 | 28.84068 | -64.20035 | 35123 ft | 518 kts | 170° |
| 2026-05-07 19:25 | 28.77002 | -64.18440 | 35126 ft | 518 kts | 170° |
| 2026-05-07 19:26 | 28.74581 | -64.17893 | 35124 ft | 518 kts | 170° |
| 2026-05-07 19:43 | 28.71383 | -64.17142 | 35038 ft | 512 kts | 169° |
| 2026-05-07 19:44 | 28.67891 | -64.16320 | 34526 ft | 513 kts | 169° |
| 2026-05-07 19:44 | 28.64429 | -64.15511 | 34575 ft | 504 kts | 170° |
| 2026-05-07 19:44 | 28.60994 | -64.14752 | 34801 ft | 503 kts | 170° |
| 2026-05-07 19:44 | 28.57558 | -64.14012 | 35014 ft | 502 kts | 170° |
| 2026-05-07 19:45 | 28.50700 | -64.12540 | 35119 ft | 509 kts | 170° |
| 2026-05-07 19:45 | 28.43697 | -64.10993 | 35117 ft | 516 kts | 169° |
| 2026-05-07 19:46 | 28.36647 | -64.09393 | 35117 ft | 517 kts | 169° |
| 2026-05-07 19:46 | 28.29585 | -64.07796 | 35119 ft | 518 kts | 169° |
| 2026-05-07 19:47 | 28.22517 | -64.06228 | 35117 ft | 518 kts | 169° |
| 2026-05-07 19:47 | 28.15493 | -64.04663 | 35124 ft | 518 kts | 169° |
| 2026-05-07 19:48 | 28.08417 | -64.03090 | 35114 ft | 519 kts | 169° |
| 2026-05-07 19:48 | 28.01326 | -64.01524 | 35115 ft | 519 kts | 169° |
| 2026-05-07 19:49 | 27.94229 | -63.99957 | 35117 ft | 520 kts | 169° |
| 2026-05-07 19:49 | 27.87178 | -63.98386 | 35117 ft | 520 kts | 169° |
| 2026-05-07 19:50 | 27.80076 | -63.96817 | 35121 ft | 520 kts | 169° |
| 2026-05-07 19:50 | 27.72968 | -63.95252 | 35111 ft | 520 kts | 169° |
| 2026-05-07 19:51 | 27.65861 | -63.93679 | 35116 ft | 521 kts | 169° |
| 2026-05-07 19:51 | 27.58799 | -63.92112 | 35117 ft | 521 kts | 169° |
| 2026-05-07 19:52 | 27.51689 | -63.90542 | 35118 ft | 521 kts | 169° |
| 2026-05-07 19:52 | 27.44573 | -63.88991 | 35113 ft | 521 kts | 169° |
| 2026-05-07 19:53 | 27.37456 | -63.87438 | 35116 ft | 521 kts | 168° |
| 2026-05-07 19:53 | 27.30337 | -63.85873 | 35118 ft | 521 kts | 169° |
| 2026-05-07 19:54 | 27.23265 | -63.84328 | 35120 ft | 521 kts | 169° |
| 2026-05-07 19:54 | 27.16143 | -63.82771 | 35111 ft | 521 kts | 168° |
| 2026-05-07 19:55 | 27.09025 | -63.81207 | 35110 ft | 521 kts | 168° |
| 2026-05-07 19:55 | 27.01902 | -63.79651 | 35114 ft | 522 kts | 168° |
| 2026-05-07 19:56 | 26.94827 | -63.78106 | 35118 ft | 522 kts | 168° |
| 2026-05-07 19:56 | 26.87700 | -63.76556 | 35106 ft | 522 kts | 168° |
| 2026-05-07 19:57 | 26.80570 | -63.75017 | 35115 ft | 522 kts | 168° |
| 2026-05-07 19:57 | 26.73440 | -63.73483 | 35119 ft | 522 kts | 167° |
| 2026-05-07 19:58 | 26.66305 | -63.71935 | 35119 ft | 522 kts | 167° |
| 2026-05-07 19:58 | 26.59214 | -63.70395 | 35115 ft | 523 kts | 167° |
| 2026-05-07 19:59 | 26.52073 | -63.68846 | 35113 ft | 523 kts | 167° |
| 2026-05-07 19:59 | 26.44931 | -63.67308 | 35112 ft | 523 kts | 167° |
| 2026-05-07 20:00 | 26.37784 | -63.65774 | 35111 ft | 523 kts | 167° |
| 2026-05-07 20:00 | 26.31844 | -63.64493 | 35112 ft | 523 kts | 167° |
| 2026-05-07 20:01 | 26.23548 | -63.62706 | 35119 ft | 522 kts | 167° |
| 2026-05-07 20:01 | 26.16409 | -63.61173 | 35116 ft | 522 kts | 167° |
| 2026-05-07 20:02 | 26.09278 | -63.59648 | 35182 ft | 518 kts | 167° |
| 2026-05-07 20:02 | 26.05935 | -63.58934 | 35112 ft | 519 kts | 167° |
| 2026-05-07 20:03 | 25.61745 | -63.47390 | 35138 ft | 514 kts | 165° |
| 2026-05-07 20:03 | 25.58276 | -63.46521 | 35420 ft | 514 kts | 169° |
| 2026-05-07 20:03 | 25.54700 | -63.46214 | 35400 ft | 519 kts | 179° |
| 2026-05-07 20:04 | 25.52306 | -63.46209 | 35162 ft | 519 kts | 179° |
| 2026-05-07 20:04 | 25.48701 | -63.46206 | 35071 ft | 518 kts | 178° |
| 2026-05-07 20:04 | 25.41518 | -63.45519 | 35093 ft | 518 kts | 168° |
| 2026-05-07 20:05 | 25.33326 | -63.43690 | 35096 ft | 516 kts | 163° |
| 2026-05-07 20:05 | 25.26314 | -63.41965 | 35091 ft | 516 kts | 164° |
| 2026-05-07 20:06 | 25.00514 | -63.34882 | 35239 ft | 512 kts | 163° |
| 2026-05-07 20:06 | 24.96990 | -63.34150 | 35128 ft | 519 kts | 172° |
| 2026-05-07 20:06 | 24.93383 | -63.33936 | 35087 ft | 520 kts | 177° |
| 2026-05-07 20:07 | 24.40685 | -63.30804 | 35124 ft | 518 kts | 173° |
| 2026-05-07 20:07 | 24.37178 | -63.30130 | 35084 ft | 510 kts | 161° |
| 2026-05-07 20:07 | 24.33746 | -63.29125 | 35096 ft | 510 kts | 160° |
| 2026-05-07 20:08 | 23.66295 | -63.03322 | 35357 ft | 509 kts | 166° |
| 2026-05-07 20:08 | 23.62758 | -63.03034 | 35129 ft | 512 kts | 183° |
| 2026-05-07 20:08 | 23.59232 | -63.03563 | 35088 ft | 513 kts | 188° |
| 2026-05-07 20:09 | 23.52162 | -63.04752 | 35091 ft | 514 kts | 182° |
| 2026-05-07 20:10 | 23.41633 | -63.03552 | 35090 ft | 507 kts | 166° |
| 2026-05-07 20:10 | 23.34747 | -63.02123 | 35094 ft | 507 kts | 166° |
| 2026-05-07 20:10 | 22.71363 | -62.85257 | 35330 ft | 501 kts | 163° |
| 2026-05-07 20:11 | 22.67908 | -62.84626 | 35182 ft | 506 kts | 170° |
| 2026-05-07 20:11 | 22.64429 | -62.84085 | 35074 ft | 505 kts | 169° |
| 2026-05-07 20:11 | 22.60958 | -62.83488 | 35091 ft | 505 kts | 168° |
| 2026-05-07 20:12 | 22.54029 | -62.82222 | 35092 ft | 505 kts | 168° |
| 2026-05-07 20:12 | 22.02527 | -62.71657 | 35358 ft | 501 kts | 171° |
| 2026-05-07 20:12 | 21.99049 | -62.71568 | 35130 ft | 501 kts | 186° |
| 2026-05-07 20:13 | 21.95577 | -62.71798 | 35061 ft | 499 kts | 175° |
| 2026-05-07 20:13 | 21.88674 | -62.70817 | 35082 ft | 501 kts | 168° |
| 2026-05-07 20:14 | 21.81819 | -62.69423 | 35079 ft | 502 kts | 169° |
| 2026-05-07 20:14 | 21.74962 | -62.68262 | 35085 ft | 502 kts | 171° |
| 2026-05-07 20:15 | 21.68046 | -62.67242 | 35082 ft | 502 kts | 171° |
| 2026-05-07 20:15 | 21.61134 | -62.66185 | 35087 ft | 502 kts | 171° |
| 2026-05-07 20:16 | 21.54224 | -62.65077 | 35087 ft | 502 kts | 170° |
| 2026-05-07 20:16 | 21.47320 | -62.63957 | 35091 ft | 502 kts | 170° |
| 2026-05-07 20:17 | 21.40458 | -62.62846 | 35096 ft | 502 kts | 171° |
| 2026-05-07 20:17 | 21.33565 | -62.61644 | 35092 ft | 502 kts | 169° |
| 2026-05-07 20:18 | 21.26712 | -62.60235 | 35097 ft | 501 kts | 168° |
| 2026-05-07 20:18 | 21.19868 | -62.58806 | 35096 ft | 501 kts | 168° |
| 2026-05-07 20:19 | 21.13058 | -62.57440 | 35093 ft | 501 kts | 168° |
| 2026-05-07 20:19 | 21.06208 | -62.56095 | 35094 ft | 501 kts | 168° |
| 2026-05-07 20:20 | 20.99350 | -62.54747 | 35098 ft | 500 kts | 168° |
| 2026-05-07 20:20 | 20.92507 | -62.53398 | 35095 ft | 500 kts | 168° |
| 2026-05-07 20:21 | 20.85713 | -62.52049 | 35101 ft | 499 kts | 168° |
| 2026-05-07 20:21 | 20.78887 | -62.50703 | 35099 ft | 498 kts | 168° |
| 2026-05-07 20:22 | 20.72071 | -62.49353 | 35089 ft | 498 kts | 168° |
| 2026-05-07 20:22 | 20.65273 | -62.48014 | 35094 ft | 497 kts | 168° |
| 2026-05-07 20:23 | 20.58475 | -62.46675 | 35092 ft | 496 kts | 168° |
| 2026-05-07 20:23 | 20.51694 | -62.45335 | 35089 ft | 496 kts | 168° |
| 2026-05-07 20:24 | 20.44958 | -62.44005 | 35089 ft | 495 kts | 168° |
| 2026-05-07 20:24 | 20.38182 | -62.42676 | 35083 ft | 495 kts | 168° |
| 2026-05-07 20:25 | 20.31413 | -62.41353 | 35084 ft | 494 kts | 168° |
| 2026-05-07 20:25 | 20.24654 | -62.40032 | 35087 ft | 494 kts | 168° |
| 2026-05-07 20:26 | 20.17946 | -62.38712 | 35088 ft | 493 kts | 168° |
| 2026-05-07 20:26 | 20.11201 | -62.37387 | 35081 ft | 493 kts | 168° |
| 2026-05-07 20:27 | 20.04457 | -62.36071 | 35087 ft | 492 kts | 169° |
| 2026-05-07 20:27 | 19.97722 | -62.34753 | 35084 ft | 492 kts | 168° |
| 2026-05-07 20:28 | 19.91042 | -62.33441 | 35083 ft | 491 kts | 168° |
| 2026-05-07 20:28 | 19.84321 | -62.32135 | 35080 ft | 491 kts | 169° |
| 2026-05-07 20:29 | 19.77602 | -62.30837 | 35074 ft | 490 kts | 169° |
| 2026-05-07 20:29 | 19.70896 | -62.29529 | 35073 ft | 490 kts | 169° |
| 2026-05-07 20:30 | 19.64193 | -62.28217 | 35073 ft | 489 kts | 169° |
| 2026-05-07 20:30 | 19.57540 | -62.26928 | 35067 ft | 489 kts | 169° |
| 2026-05-07 20:31 | 19.50840 | -62.25636 | 35069 ft | 490 kts | 169° |
| 2026-05-07 20:31 | 19.44139 | -62.24332 | 35068 ft | 489 kts | 169° |
| 2026-05-07 20:32 | 19.37441 | -62.23024 | 35071 ft | 489 kts | 169° |
| 2026-05-07 20:32 | 19.30747 | -62.21731 | 35082 ft | 489 kts | 169° |
| 2026-05-07 20:33 | 19.24101 | -62.20448 | 35083 ft | 489 kts | 169° |
| 2026-05-07 20:33 | 19.17416 | -62.19153 | 35081 ft | 488 kts | 169° |
| 2026-05-07 20:34 | 19.10737 | -62.17858 | 35073 ft | 488 kts | 169° |
| 2026-05-07 20:34 | 19.04062 | -62.16566 | 35071 ft | 487 kts | 169° |
| 2026-05-07 20:35 | 18.97439 | -62.15292 | 35068 ft | 487 kts | 169° |
| 2026-05-07 20:35 | 18.90773 | -62.13997 | 35063 ft | 487 kts | 169° |
| 2026-05-07 20:36 | 18.84115 | -62.12710 | 35060 ft | 486 kts | 169° |
| 2026-05-07 20:36 | 18.77469 | -62.11432 | 35066 ft | 485 kts | 169° |
| 2026-05-07 20:37 | 18.70869 | -62.10170 | 35064 ft | 485 kts | 169° |
| 2026-05-07 20:37 | 18.64234 | -62.08896 | 35064 ft | 484 kts | 169° |
| 2026-05-07 20:38 | 18.57606 | -62.07616 | 35060 ft | 484 kts | 169° |
| 2026-05-07 20:38 | 18.50981 | -62.06343 | 35065 ft | 483 kts | 169° |
| 2026-05-07 20:39 | 18.44370 | -62.05079 | 35068 ft | 482 kts | 169° |
| 2026-05-07 20:39 | 18.37816 | -62.03828 | 35069 ft | 482 kts | 169° |
| 2026-05-07 20:40 | 18.31224 | -62.02566 | 35064 ft | 481 kts | 169° |
| 2026-05-07 20:40 | 18.24629 | -62.01305 | 35063 ft | 481 kts | 169° |
| 2026-05-07 20:41 | 18.18046 | -62.00050 | 35065 ft | 480 kts | 170° |
| 2026-05-07 20:41 | 18.11520 | -61.98801 | 35071 ft | 480 kts | 170° |
| 2026-05-07 20:42 | 18.04959 | -61.97552 | 35071 ft | 479 kts | 170° |
| 2026-05-07 20:42 | 17.98403 | -61.96307 | 35067 ft | 479 kts | 170° |
| 2026-05-07 20:43 | 17.91849 | -61.95055 | 35067 ft | 478 kts | 170° |
| 2026-05-07 20:43 | 17.85316 | -61.93802 | 35074 ft | 477 kts | 170° |
| 2026-05-07 20:44 | 17.78798 | -61.92559 | 35075 ft | 476 kts | 171° |
| 2026-05-07 20:44 | 17.72337 | -61.91333 | 35073 ft | 474 kts | 171° |
| 2026-05-07 20:45 | 17.65860 | -61.90107 | 35067 ft | 472 kts | 171° |
| 2026-05-07 20:45 | 17.59396 | -61.88881 | 35077 ft | 471 kts | 172° |
| 2026-05-07 20:46 | 17.52952 | -61.87661 | 35078 ft | 470 kts | 172° |
| 2026-05-07 20:46 | 17.46569 | -61.86446 | 35073 ft | 469 kts | 172° |
| 2026-05-07 20:47 | 17.40154 | -61.85226 | 35060 ft | 468 kts | 172° |
| 2026-05-07 20:47 | 17.33748 | -61.84016 | 35052 ft | 468 kts | 172° |
| 2026-05-07 20:48 | 17.27348 | -61.82807 | 35050 ft | 467 kts | 172° |
| 2026-05-07 20:48 | 17.21005 | -61.81604 | 35051 ft | 466 kts | 172° |
| 2026-05-07 20:49 | 17.14633 | -61.80400 | 35049 ft | 465 kts | 172° |
| 2026-05-07 20:49 | 17.08350 | -61.78742 | 35046 ft | 466 kts | 166° |
| 2026-05-07 20:50 | 17.02120 | -61.76845 | 35049 ft | 466 kts | 166° |
| 2026-05-07 20:50 | 16.95894 | -61.74953 | 35042 ft | 466 kts | 166° |
| 2026-05-07 20:51 | 16.89709 | -61.73076 | 35050 ft | 466 kts | 166° |
| 2026-05-07 20:51 | 16.83487 | -61.71197 | 35043 ft | 465 kts | 166° |
| 2026-05-07 20:52 | 16.77270 | -61.69315 | 35043 ft | 465 kts | 166° |
| 2026-05-07 20:52 | 16.71059 | -61.67433 | 35036 ft | 465 kts | 166° |
| 2026-05-07 20:53 | 16.64848 | -61.65560 | 35023 ft | 464 kts | 166° |
| 2026-05-07 20:53 | 16.58691 | -61.63701 | 35024 ft | 463 kts | 166° |
| 2026-05-07 20:54 | 16.52503 | -61.61830 | 35024 ft | 463 kts | 166° |
| 2026-05-07 20:54 | 16.46313 | -61.59969 | 35019 ft | 463 kts | 166° |
| 2026-05-07 20:55 | 16.40172 | -61.58125 | 34973 ft | 463 kts | 166° |
| 2026-05-07 20:55 | 16.37076 | -61.57195 | 34725 ft | 462 kts | 166° |
| 2026-05-07 20:55 | 16.33985 | -61.56264 | 34497 ft | 463 kts | 166° |
| 2026-05-07 20:55 | 16.30897 | -61.55331 | 34269 ft | 462 kts | 166° |
| 2026-05-07 20:56 | 16.27803 | -61.54397 | 34036 ft | 462 kts | 167° |
| 2026-05-07 20:56 | 16.24667 | -61.53694 | 33433 ft | 463 kts | 174° |
| 2026-05-07 20:56 | 16.21465 | -61.53188 | 32543 ft | 467 kts | 174° |
| 2026-05-07 20:56 | 16.18235 | -61.52698 | 31633 ft | 472 kts | 174° |
| 2026-05-07 20:57 | 16.14963 | -61.52208 | 30791 ft | 476 kts | 174° |
| 2026-05-07 20:57 | 16.11725 | -61.51718 | 30146 ft | 475 kts | 174° |
| 2026-05-07 20:57 | 16.08465 | -61.51216 | 29505 ft | 472 kts | 174° |
| 2026-05-07 20:57 | 16.05231 | -61.50712 | 28933 ft | 468 kts | 173° |
| 2026-05-07 20:58 | 16.02027 | -61.50211 | 28345 ft | 463 kts | 173° |
| 2026-05-07 20:58 | 15.98855 | -61.49714 | 27771 ft | 459 kts | 173° |
| 2026-05-07 20:58 | 15.95707 | -61.49225 | 27208 ft | 456 kts | 173° |
| 2026-05-07 20:58 | 15.92583 | -61.48740 | 26651 ft | 452 kts | 173° |
| 2026-05-07 20:59 | 15.89482 | -61.48260 | 26097 ft | 449 kts | 173° |
| 2026-05-07 20:59 | 15.86441 | -61.47790 | 25555 ft | 446 kts | 173° |
| 2026-05-07 20:59 | 15.83381 | -61.47317 | 25012 ft | 444 kts | 173° |
| 2026-05-07 20:59 | 15.80336 | -61.46847 | 24473 ft | 441 kts | 173° |
| 2026-05-07 21:00 | 15.77310 | -61.46381 | 23956 ft | 439 kts | 173° |
| 2026-05-07 21:00 | 15.74295 | -61.45920 | 23415 ft | 436 kts | 173° |
| 2026-05-07 21:00 | 15.71310 | -61.45464 | 22904 ft | 431 kts | 173° |
| 2026-05-07 21:00 | 15.68361 | -61.45011 | 22432 ft | 426 kts | 173° |
| 2026-05-07 21:01 | 15.65451 | -61.44563 | 21991 ft | 420 kts | 173° |
| 2026-05-07 21:01 | 15.62582 | -61.44120 | 21547 ft | 414 kts | 173° |
| 2026-05-07 21:01 | 15.59791 | -61.43688 | 21129 ft | 409 kts | 173° |
| 2026-05-07 21:01 | 15.56990 | -61.43257 | 20708 ft | 404 kts | 173° |
| 2026-05-07 21:02 | 15.54217 | -61.42830 | 20276 ft | 401 kts | 172° |
| 2026-05-07 21:02 | 15.51478 | -61.42409 | 19850 ft | 397 kts | 173° |
| 2026-05-07 21:02 | 15.48759 | -61.41990 | 19414 ft | 394 kts | 172° |
| 2026-05-07 21:02 | 15.46055 | -61.41572 | 18899 ft | 392 kts | 172° |
| 2026-05-07 21:03 | 15.43362 | -61.41157 | 18462 ft | 390 kts | 172° |
| 2026-05-07 21:03 | 15.40682 | -61.40744 | 17976 ft | 388 kts | 172° |
| 2026-05-07 21:03 | 15.38056 | -61.40331 | 17528 ft | 385 kts | 171° |
| 2026-05-07 21:03 | 15.35422 | -61.39874 | 17076 ft | 382 kts | 170° |
| 2026-05-07 21:04 | 15.32814 | -61.39389 | 16628 ft | 379 kts | 169° |
| 2026-05-07 21:04 | 15.30230 | -61.38893 | 16188 ft | 377 kts | 169° |
| 2026-05-07 21:04 | 15.27656 | -61.38399 | 15744 ft | 375 kts | 169° |
| 2026-05-07 21:04 | 15.25098 | -61.37914 | 15304 ft | 372 kts | 169° |
| 2026-05-07 21:05 | 15.22556 | -61.37442 | 14870 ft | 370 kts | 169° |
| 2026-05-07 21:05 | 15.20061 | -61.36984 | 14444 ft | 368 kts | 169° |
| 2026-05-07 21:05 | 15.17545 | -61.36524 | 14008 ft | 367 kts | 169° |
| 2026-05-07 21:05 | 15.15040 | -61.36066 | 13549 ft | 365 kts | 169° |
| 2026-05-07 21:06 | 15.12545 | -61.35607 | 13098 ft | 363 kts | 169° |
| 2026-05-07 21:06 | 15.10073 | -61.35152 | 12666 ft | 360 kts | 169° |
| 2026-05-07 21:06 | 15.07614 | -61.34699 | 12215 ft | 358 kts | 169° |
| 2026-05-07 21:06 | 15.05169 | -61.34250 | 11777 ft | 356 kts | 169° |
| 2026-05-07 21:07 | 15.02739 | -61.33806 | 11332 ft | 354 kts | 169° |
| 2026-05-07 21:07 | 15.00320 | -61.33362 | 10888 ft | 353 kts | 169° |
| 2026-05-07 21:07 | 14.97939 | -61.32925 | 10538 ft | 349 kts | 169° |
| 2026-05-07 21:07 | 14.95590 | -61.32494 | 10422 ft | 336 kts | 169° |
| 2026-05-07 21:08 | 14.93330 | -61.32081 | 10302 ft | 325 kts | 169° |
| 2026-05-07 21:08 | 14.91142 | -61.31681 | 10183 ft | 314 kts | 169° |
| 2026-05-07 21:08 | 14.89015 | -61.31292 | 9979 ft | 307 kts | 169° |
| 2026-05-07 21:08 | 14.86901 | -61.30904 | 9618 ft | 312 kts | 169° |
| 2026-05-07 21:09 | 14.84778 | -61.30517 | 9171 ft | 312 kts | 169° |
| 2026-05-07 21:09 | 14.82680 | -61.29989 | 8821 ft | 308 kts | 160° |
| 2026-05-07 21:09 | 14.80663 | -61.29288 | 8476 ft | 305 kts | 161° |
| 2026-05-07 21:09 | 14.78687 | -61.28601 | 8096 ft | 303 kts | 160° |
| 2026-05-07 21:10 | 14.76693 | -61.27908 | 7726 ft | 301 kts | 161° |
| 2026-05-07 21:10 | 14.74726 | -61.27224 | 7272 ft | 296 kts | 161° |
| 2026-05-07 21:10 | 14.72792 | -61.26555 | 6609 ft | 292 kts | 161° |
| 2026-05-07 21:10 | 14.70862 | -61.25888 | 5813 ft | 293 kts | 161° |
| 2026-05-07 21:11 | 14.68933 | -61.25220 | 5332 ft | 291 kts | 161° |
| 2026-05-07 21:11 | 14.67023 | -61.24559 | 4984 ft | 289 kts | 161° |
| 2026-05-07 21:11 | 14.63258 | -61.23255 | 4165 ft | 288 kts | 159° |
| 2026-05-07 21:12 | 14.61388 | -61.22607 | 3893 ft | 277 kts | 160° |
| 2026-05-07 21:12 | 14.59622 | -61.21999 | 3761 ft | 258 kts | 159° |
| 2026-05-07 21:12 | 14.58002 | -61.21349 | 3658 ft | 242 kts | 146° |
| 2026-05-07 21:12 | 14.56820 | -61.20245 | 3549 ft | 222 kts | 122° |
| 2026-05-07 21:13 | 14.56198 | -61.18830 | 3322 ft | 215 kts | 100° |
| 2026-05-07 21:13 | 14.56179 | -61.17314 | 2987 ft | 211 kts | 79° |
| 2026-05-07 21:13 | 14.56437 | -61.15834 | 2681 ft | 209 kts | 78° |
| 2026-05-07 21:13 | 14.56692 | -61.14364 | 2397 ft | 207 kts | 80° |
| 2026-05-07 21:14 | 14.56939 | -61.12927 | 2122 ft | 204 kts | 79° |
| 2026-05-07 21:14 | 14.57182 | -61.11517 | 1842 ft | 195 kts | 78° |
| 2026-05-07 21:14 | 14.57407 | -61.10207 | 1598 ft | 177 kts | 79° |
| 2026-05-07 21:14 | 14.57609 | -61.09029 | 1369 ft | 157 kts | 78° |
| 2026-05-07 21:15 | 14.57794 | -61.07957 | 1168 ft | 148 kts | 78° |
| 2026-05-07 21:15 | 14.57970 | -61.06931 | 989 ft | 145 kts | 77° |
| 2026-05-07 21:15 | 14.58153 | -61.05904 | 812 ft | 147 kts | 78° |
| 2026-05-07 21:15 | 14.58334 | -61.04887 | 676 ft | 144 kts | 76° |
| 2026-05-07 21:16 | 14.58503 | -61.03868 | 474 ft | 143 kts | 78° |
| 2026-05-07 21:16 | 14.58670 | -61.02870 | 286 ft | 148 kts | 75° |
| 2026-05-07 21:16 | 14.58846 | -61.01841 | 68 ft | 142 kts | 77° |
| 2026-05-07 21:16 | 14.59013 | -61.00891 | 25 ft | 125 kts | 81° |
| 2026-05-07 21:17 | 14.59164 | -60.99901 | 369 ft | 146 kts | 76° |
| 2026-05-07 21:17 | 14.59318 | -60.98851 | 1028 ft | 151 kts | 77° |
| 2026-05-07 21:17 | 14.59461 | -60.97759 | 1811 ft | 156 kts | 79° |
| 2026-05-07 21:17 | 14.59605 | -60.96600 | 2126 ft | 172 kts | 79° |
| 2026-05-07 21:18 | 14.59775 | -60.95313 | 2264 ft | 189 kts | 79° |
| 2026-05-07 21:18 | 14.59983 | -60.93916 | 2400 ft | 205 kts | 79° |
| 2026-05-07 21:18 | 14.60207 | -60.92454 | 2674 ft | 212 kts | 80° |
| 2026-05-07 21:18 | 14.60447 | -60.90922 | 2900 ft | 222 kts | 79° |
| 2026-05-07 21:19 | 14.60687 | -60.89324 | 2980 ft | 227 kts | 79° |
| 2026-05-07 21:19 | 14.60938 | -60.87713 | 3008 ft | 227 kts | 80° |
| 2026-05-07 21:19 | 14.61152 | -60.86099 | 3007 ft | 228 kts | 88° |
| 2026-05-07 21:19 | 14.60653 | -60.84568 | 3010 ft | 232 kts | 127° |
| 2026-05-07 21:20 | 14.59267 | -60.83702 | 3013 ft | 243 kts | 165° |
| 2026-05-07 21:20 | 14.57563 | -60.83556 | 3015 ft | 248 kts | 178° |
| 2026-05-07 21:20 | 14.55867 | -60.83592 | 3014 ft | 247 kts | 179° |
| 2026-05-07 21:20 | 14.54154 | -60.83632 | 3012 ft | 248 kts | 180° |
| 2026-05-07 21:21 | 14.52434 | -60.83673 | 3011 ft | 246 kts | 180° |
| 2026-05-07 21:21 | 14.50716 | -60.83671 | 3013 ft | 247 kts | 172° |
| 2026-05-07 21:21 | 14.49016 | -60.83464 | 3011 ft | 246 kts | 168° |
| 2026-05-07 21:21 | 14.47318 | -60.83261 | 3012 ft | 248 kts | 181° |
| 2026-05-07 21:22 | 14.45685 | -60.83815 | 3016 ft | 252 kts | 215° |
| 2026-05-07 21:22 | 14.44613 | -60.85208 | 3009 ft | 249 kts | 251° |
| 2026-05-07 21:22 | 14.44262 | -60.86960 | 3013 ft | 252 kts | 263° |
| 2026-05-07 21:22 | 14.44008 | -60.88723 | 3006 ft | 251 kts | 263° |
| 2026-05-07 21:23 | 14.43753 | -60.90502 | 3010 ft | 251 kts | 263° |
| 2026-05-07 21:23 | 14.43496 | -60.92289 | 3014 ft | 253 kts | 262° |
| 2026-05-07 21:23 | 14.43235 | -60.94071 | 3008 ft | 251 kts | 263° |
| 2026-05-07 21:23 | 14.42972 | -60.95862 | 3011 ft | 253 kts | 262° |
| 2026-05-07 21:24 | 14.42709 | -60.97654 | 3006 ft | 253 kts | 263° |
| 2026-05-07 21:24 | 14.42442 | -60.99439 | 3005 ft | 252 kts | 263° |
| 2026-05-07 21:24 | 14.42173 | -61.01228 | 3010 ft | 251 kts | 262° |
| 2026-05-07 21:24 | 14.41905 | -61.03006 | 3007 ft | 250 kts | 262° |
| 2026-05-07 21:25 | 14.41647 | -61.04744 | 3007 ft | 249 kts | 263° |
| 2026-05-07 21:25 | 14.41387 | -61.06501 | 3008 ft | 250 kts | 262° |
| 2026-05-07 21:25 | 14.41123 | -61.08277 | 3013 ft | 251 kts | 262° |
| 2026-05-07 21:25 | 14.41056 | -61.10068 | 3008 ft | 250 kts | 279° |
| 2026-05-07 21:26 | 14.41460 | -61.11801 | 3009 ft | 249 kts | 291° |
| 2026-05-07 21:26 | 14.42003 | -61.13497 | 3008 ft | 248 kts | 291° |
| 2026-05-07 21:26 | 14.42534 | -61.15186 | 3008 ft | 248 kts | 290° |
| 2026-05-07 21:26 | 14.43062 | -61.16877 | 3006 ft | 248 kts | 290° |
| 2026-05-07 21:27 | 14.43581 | -61.18548 | 3006 ft | 247 kts | 291° |
| 2026-05-07 21:27 | 14.44107 | -61.20238 | 3010 ft | 247 kts | 291° |
| 2026-05-07 21:27 | 14.44876 | -61.21787 | 3007 ft | 242 kts | 316° |
| 2026-05-07 21:27 | 14.46218 | -61.22757 | 3004 ft | 234 kts | 345° |
| 2026-05-07 21:28 | 14.47797 | -61.22952 | 3008 ft | 229 kts | 11° |
| 2026-05-07 21:28 | 14.49333 | -61.22532 | 3009 ft | 229 kts | 19° |
| 2026-05-07 21:28 | 14.50860 | -61.22061 | 3008 ft | 229 kts | 19° |
| 2026-05-07 21:28 | 14.52386 | -61.21596 | 3007 ft | 229 kts | 19° |
| 2026-05-07 21:29 | 14.53867 | -61.21068 | 3006 ft | 228 kts | 30° |
| 2026-05-07 21:29 | 14.55109 | -61.20079 | 2958 ft | 225 kts | 49° |
| 2026-05-07 21:29 | 14.55887 | -61.18708 | 2992 ft | 225 kts | 71° |
| 2026-05-07 21:29 | 14.56229 | -61.17124 | 2817 ft | 227 kts | 80° |
| 2026-05-07 21:30 | 14.56495 | -61.15524 | 2551 ft | 225 kts | 79° |
| 2026-05-07 21:30 | 14.56763 | -61.13949 | 2292 ft | 220 kts | 80° |
| 2026-05-07 21:30 | 14.57028 | -61.12408 | 1989 ft | 214 kts | 80° |
| 2026-05-07 21:30 | 14.57280 | -61.10943 | 1727 ft | 199 kts | 79° |
| 2026-05-07 21:31 | 14.57507 | -61.09620 | 1472 ft | 181 kts | 79° |
| 2026-05-07 21:31 | 14.57714 | -61.08418 | 1269 ft | 158 kts | 78° |
| 2026-05-07 21:31 | 14.57900 | -61.07351 | 1077 ft | 147 kts | 77° |
| 2026-05-07 21:31 | 14.58091 | -61.06313 | 932 ft | 149 kts | 78° |
| 2026-05-07 21:32 | 14.58286 | -61.05296 | 766 ft | 144 kts | 76° |
| 2026-05-07 21:32 | 14.58449 | -61.04273 | 581 ft | 144 kts | 79° |
| 2026-05-07 21:32 | 14.58614 | -61.03258 | 375 ft | 145 kts | 75° |
| 2026-05-07 21:32 | 14.58781 | -61.02225 | 136 ft | 144 kts | 78° |
| 2026-05-07 21:33 | 14.58952 | -61.01235 | 30 ft | 132 kts | 79° |
| 2026-05-07 21:33 | 14.59086 | -61.00432 | 15 ft | 88 kts | 80° |
| 2026-05-07 21:33 | 14.59155 | -61.00045 | 18 ft | 11 kts | 75° |
| 2026-05-07 21:33 | 14.59192 | -61.00022 | 19 ft | 5 kts | 352° |
| 2026-05-07 21:34 | 14.59224 | -61.00028 | 19 ft | 5 kts | 348° |
| 2026-05-07 21:34 | 14.59268 | -61.00035 | 20 ft | 8 kts | 351° |
| 2026-05-07 21:34 | 14.59329 | -61.00042 | 19 ft | 6 kts | 3° |
| 2026-05-07 21:34 | 14.59355 | -61.00004 | 19 ft | 0 kts | 76° |
| 2026-05-07 21:35 | 14.59356 | -60.99997 | 19 ft | 3 kts | 76° |
| 2026-05-07 21:35 | 14.59380 | -60.99980 | 19 ft | 6 kts | 19° |
| 2026-05-07 21:36 | 14.59414 | -60.99974 | 18 ft | 3 kts | 7° |
| 2026-05-07 21:36 | 14.59436 | -60.99971 | 18 ft | 2 kts | 7° |
| 2026-05-07 21:36 | 14.59437 | -60.99971 | 18 ft | 0 kts | 7° |